Latest Coastal Weather Observations for Adelaide Airport

IDS60701

Issued at 3:51 am CDT Thursday 23 February 2017 (issued every 10 minutes, with the page automatically refreshed every 10 minutes)

About coastal observations | Map of coastal stations | Coastal observations for SA | Marine services | Other Formats
Station Details ID: 023034 Name: ADELAIDE AIRPORT Lat: -34.95 Lon: 138.52 Height: 2.0 m
Data from the previous 72 hours. | See also: Recent months at Adelaide Airport
Date/Time
CDT
Temp
°C
Wind Pressure Rain since
9am
mm
Weather Cloud Vis
km
Sea
Height
m
Swell
Dir  Spd
kts
Gust
kts
hPa Trend Height
m
Period
s
Dir
23/03:30am 19.2 SW 15 19 1016.7 - 0.0 - Mostly cloudy 10 - - - -
23/03:00am 19.2 WSW 12 17 1016.8 R 0.0 Haze Mostly cloudy 20 - - - -
23/02:30am 19.3 WSW 11 16 1016.7 - 0.0 - Mostly cloudy 10 - - - -
23/02:00am 19.3 WSW 13 16 1016.8 - 0.0 - Mostly cloudy 10 - - - -
23/01:30am 19.3 WSW 13 17 1016.8 - 0.0 - Partly cloudy 10 - - - -
23/01:00am 19.5 WSW 13 18 1016.9 - 0.0 - Mostly cloudy 10 - - - -
23/12:30am 19.7 WSW 15 18 1016.7 - 0.0 - Mostly cloudy 10 - - - -
23/12:00am 19.6 W 15 20 1016.6 R 0.0 Haze Mostly cloudy 25 - - - -
 
Date/Time
CDT
Temp
°C
Wind Pressure Rain since
9am
mm
Weather Cloud Vis
km
Sea
Height
m
Swell
Dir  Spd
kts
Gust
kts
hPa Trend Height
m
Period
s
Dir
22/11:30pm 19.7 WSW 15 19 1016.6 - 0.0 - Partly cloudy 10 - - - -
22/11:00pm 19.8 WSW 16 19 1016.6 - 0.0 - Mostly clear 10 - - - -
22/10:30pm 20.2 WSW 14 18 1016.3 - 0.0 - Mostly clear 10 - - - -
22/10:00pm 20.4 WSW 13 18 1016.0 - 0.0 - Mostly clear 10 - - - -
22/09:30pm 20.9 W 15 20 1015.4 - 0.0 - Mostly clear 10 - - - -
22/09:00pm 21.0 W 15 20 1015.1 R 0.0 Haze Mostly clear 25 - - - -
22/08:30pm 21.2 W 16 20 1014.5 - 0.0 - Mostly clear 10 - - - -
22/08:00pm 21.6 W 16 21 1014.0 - 0.0 - Mostly clear 10 - - - -
22/07:30pm 22.1 W 17 21 1013.4 - 0.0 - Mostly clear 10 - - - -
22/07:00pm 22.8 W 17 24 1013.0 - 0.0 - Mostly clear 10 - - - -
22/06:30pm 23.4 W 15 21 1012.7 - 0.0 - Mostly clear 10 - - - -
22/06:00pm 24.0 W 17 21 1012.5 R 0.0 Fine Mostly clear 30 - - - -
22/05:30pm 24.2 W 17 22 1012.5 - 0.0 - Mostly clear 10 - - - -
22/05:00pm 24.4 W 16 20 1012.3 - 0.0 - - 10 - - - -
22/04:30pm 24.6 WNW 16 20 1012.1 - 0.0 - - 10 - - - -
22/04:00pm 24.8 W 16 20 1011.8 - 0.0 - Partly cloudy 10 - - - -
22/03:30pm 24.0 WNW 18 23 1011.6 - 0.0 - Cloudy 10 - - - -
22/03:00pm 24.7 WNW 19 23 1011.4 R 0.0 Fine Partly cloudy 25 - - - -
22/02:30pm 24.7 WNW 20 26 1011.4 - 0.0 - - 10 - - - -
22/02:00pm 24.9 W 19 24 1011.2 - 0.0 - - 10 - - - -
22/01:30pm 24.7 WNW 14 18 1010.9 - 0.0 - - 10 - - - -
22/01:00pm 26.1 NNW 12 17 1010.3 - 0.0 - - 10 - - - -
22/12:30pm 24.7 NW 9 14 1010.4 - 0.0 - - 10 - - - -
22/12:00pm 22.9 SW 9 12 1010.9 R 0.0 Fine Partly cloudy 15 - - - -
22/11:30am 23.4 WSW 15 20 1011.3 - 0.0 - - 10 - - - -
22/11:00am 23.3 WSW 21 28 1011.6 - 0.0 - Mostly clear 9 - - - -
22/10:53am 23.2 WSW 23 29 1011.5 - 0.0 - - 8 - - - -
22/10:42am 23.9 W 21 31 1011.3 - 0.0 - - 10 - - - -
22/10:34am 26.3 NW 20 28 1010.9 - 0.0 - - 10 - - - -
22/10:30am 27.0 NNW 19 26 1010.6 - 0.0 - - 10 - - - -
22/10:13am 27.7 NNW 20 30 1010.2 - 0.0 - - 10 - - - -
22/10:00am 28.2 N 25 32 1009.9 - 0.0 - - 10 - - - -
22/09:51am 28.7 NNW 18 32 1009.8 - 0.0 - - 10 - - - -
22/09:30am 28.8 NNE 18 25 1008.5 - 0.0 - - 10 - - - -
22/09:00am 28.0 NNE 18 27 1008.3 F 0.0 Fine Mostly clear 35 - - - -
22/08:30am 27.2 NNE 19 25 1008.3 - 0.0 - - 10 - - - -
22/08:00am 25.7 NNE 17 21 1007.8 - 0.0 - - 10 - - - -
22/07:30am 25.2 NNE 15 20 1007.5 - 0.0 - - 10 - - - -
22/07:00am 25.3 NNE 16 20 1007.5 - 0.0 - - 10 - - - -
22/06:30am 25.7 NNE 19 25 1007.1 - 0.0 - - 10 - - - -
22/06:00am 25.6 NNE 19 25 1007.5 F 0.0 Fine Partly cloudy 30 - - - -
22/05:30am 25.6 NNE 18 26 1007.2 - 0.0 - - 10 - - - -
22/05:00am 25.4 NNE 17 22 1007.6 - 0.0 - - 10 - - - -
22/04:31am 25.7 NNE 18 28 1007.8 - 0.0 - - 10 - - - -
22/04:30am 25.6 NNE 18 26 1007.8 - 0.0 - - 10 - - - -
22/04:00am 25.1 NNE 15 20 1008.1 - 0.0 - - 10 - - - -
22/03:30am 24.5 NNE 15 18 1008.3 - 0.0 - - 10 - - - -
22/03:00am 22.3 NNE 10 13 1009.0 F 0.0 Fine Partly cloudy 30 - - - -
22/02:30am 21.2 NNE 9 10 1009.4 - 0.0 - - 10 - - - -
22/02:00am 21.8 N 9 12 1009.9 - 0.0 - - 10 - - - -
22/01:30am 22.5 N 9 11 1010.3 - 0.0 - - 10 - - - -
22/01:00am 23.4 NNE 9 9 1010.6 - 0.0 - - 10 - - - -
22/12:30am 24.1 NNE 10 13 1010.9 - 0.0 - - 10 - - - -
22/12:00am 24.2 NE 7 9 1011.2 F 0.0 Fine Partly cloudy 30 - - - -
 
Date/Time
CDT
Temp
°C
Wind Pressure Rain since
9am
mm
Weather Cloud Vis
km
Sea
Height
m
Swell
Dir  Spd
kts
Gust
kts
hPa Trend Height
m
Period
s
Dir
21/11:30pm 22.6 NE 8 8 1011.5 - 0.0 - - 10 - - - -
21/11:00pm 21.6 NE 7 8 1012.0 - 0.0 - - 10 - - - -
21/10:30pm 21.8 ENE 3 4 1012.5 - 0.0 - - 10 - - - -
21/10:00pm 22.1 E 5 5 1012.7 - 0.0 - - 10 - - - -
21/09:30pm 23.0 ENE 5 6 1012.6 - 0.0 - - 10 - - - -
21/09:00pm 23.0 ESE 6 7 1012.5 F 0.0 Fine Partly cloudy 30 - - - -
21/08:30pm 23.8 ESE 5 7 1012.3 - 0.0 - - 10 - - - -
21/08:00pm 25.3 SW 4 4 1012.3 - 0.0 - - 10 - - - -
21/07:30pm 25.8 SSW 5 6 1012.0 - 0.0 - - 10 - - - -
21/07:00pm 27.1 SW 6 7 1011.8 - 0.0 - - 10 - - - -
21/06:30pm 26.9 SW 7 8 1011.9 - 0.0 - - 10 - - - -
21/06:00pm 27.2 WSW 8 10 1012.2 F 0.0 Fine Mostly clear 40 - - - -
21/05:30pm 27.6 SW 9 10 1012.4 - 0.0 - - 10 - - - -
21/05:00pm 26.7 WSW 9 11 1012.8 - 0.0 - - 10 - - - -
21/04:30pm 26.7 WSW 9 11 1013.1 - 0.0 - - 10 - - - -
21/04:00pm 26.6 SW 9 12 1013.7 - 0.0 - - 10 - - - -
21/03:30pm 26.3 WSW 9 12 1014.3 - 0.0 - - 10 - - - -
21/03:00pm 27.3 W 11 16 1014.8 F 0.0 Fine Mostly clear 40 - - - -
21/02:30pm 27.6 W 10 15 1015.3 - 0.0 - - 10 - - - -
21/02:00pm 26.6 WNW 12 16 1015.8 - 0.0 - - 10 - - - -
21/01:30pm 26.6 N 8 13 1016.0 - 0.0 - - 10 - - - -
21/01:00pm 26.5 NNE 10 15 1016.4 - 0.0 - - 10 - - - -
21/12:30pm 26.1 NNE 10 15 1017.0 - 0.0 - - 10 - - - -
21/12:00pm 25.2 N 10 14 1017.6 F 0.0 Fine Mostly clear 35 - - - -
21/11:30am 24.5 N 9 14 1018.1 - 0.0 - - 10 - - - -
21/11:00am 23.6 NNE 11 15 1018.4 - 0.0 - - 10 - - - -
21/10:30am 22.8 NNE 12 16 1018.4 - 0.0 - - 10 - - - -
21/10:00am 21.6 NNE 11 15 1018.5 - 0.0 - - 10 - - - -
21/09:30am 20.2 NE 12 15 1018.6 - 0.0 - - 10 - - - -
21/09:00am 18.3 ENE 4 5 1018.9 F 0.0 Fine Clear 40 - - - -
21/08:30am 16.0 ENE 2 3 1019.0 - 0.0 - - 10 - - - -
21/08:00am 14.8 CALM 0 0 1018.7 - 0.0 - - 10 - - - -
21/07:30am 12.3 CALM 0 6 1018.4 - 0.0 - - 10 - - - -
21/07:00am 11.0 CALM 0 0 1017.7 - 0.0 - - 10 - - - -
21/06:30am 11.1 CALM 0 0 1018.0 - 0.0 - - 10 - - - -
21/06:00am 11.3 CALM 0 0 1017.8 F 0.0 Fine Clear 40 - - - -
21/05:30am 12.0 ENE 1 5 1017.6 - 0.0 - - 10 - - - -
21/05:00am 11.3 CALM 0 0 1017.8 - 0.0 - - 10 - - - -
21/04:30am 11.5 E 3 4 1017.7 - 0.0 - - 10 - - - -
21/04:00am 11.4 CALM 0 0 1017.8 - 0.0 - - 10 - - - -
21/03:30am 11.5 CALM 0 0 1017.9 - 0.0 - - 10 - - - -
21/03:00am 12.0 CALM 0 0 1018.1 F 0.0 Fine Clear 35 - - - -
21/02:30am 12.1 CALM 0 0 1018.2 - 0.0 - - 10 - - - -
21/02:00am 12.4 CALM 0 0 1018.5 - 0.0 - - 10 - - - -
21/01:30am 13.3 CALM 0 0 1018.5 - 0.0 - - 10 - - - -
21/01:00am 13.7 ESE 2 4 1018.6 - 0.0 - - 10 - - - -
21/12:30am 14.1 ESE 5 6 1018.9 - 0.0 - - 10 - - - -
21/12:00am 14.3 ESE 8 10 1019.3 R 0.0 Fine Clear 35 - - - -
 
Date/Time
CDT
Temp
°C
Wind Pressure Rain since
9am
mm
Weather Cloud Vis
km
Sea
Height
m
Swell
Dir  Spd
kts
Gust
kts
hPa Trend Height
m
Period
s
Dir
20/11:30pm 15.0 ESE 9 11 1019.2 - 0.0 - - 10 - - - -
20/11:00pm 14.8 SE 8 12 1019.4 - 0.0 - - 10 - - - -
20/10:30pm 15.5 SE 7 10 1019.4 - 0.0 - - 10 - - - -
20/10:00pm 15.6 SSE 7 9 1019.3 - 0.0 - - 10 - - - -
20/09:30pm 16.0 SE 9 12 1019.1 - 0.0 - - 10 - - - -
20/09:00pm 16.5 SSE 11 15 1018.9 R 0.0 Fine Clear 35 - - - -
20/08:30pm 17.3 SSE 11 15 1018.6 - 0.0 - - 10 - - - -
20/08:00pm 18.3 SSE 11 15 1018.2 - 0.0 - - 10 - - - -
20/07:30pm 19.6 SW 13 17 1017.6 - 0.0 - - 10 - - - -
20/07:00pm 19.7 SW 13 16 1017.3 - 0.0 - - 10 - - - -
20/06:30pm 19.7 SW 12 16 1017.1 - 0.0 - - 10 - - - -
20/06:00pm 19.7 SW 12 17 1017.0 R 0.0 Fine Mostly clear 30 - - - -
20/05:30pm 20.4 SW 13 15 1017.1 - 0.0 - - 10 - - - -
20/05:00pm 21.2 SW 14 18 1016.8 - 0.0 - - 10 - - - -
20/04:30pm 20.5 SW 14 17 1017.0 - 0.0 - - 10 - - - -
20/04:00pm 21.1 SW 15 18 1017.1 - 0.0 - - 10 - - - -
20/03:30pm 20.7 SW 15 18 1017.3 - 0.0 - - 10 - - - -
20/03:00pm 20.4 WSW 13 17 1017.6 R 0.0 Fine Mostly clear 30 - - - -
20/02:30pm 20.4 WSW 11 16 1017.8 - 0.0 - - 10 - - - -
20/02:00pm 19.9 SW 11 16 1018.1 - 0.0 - - 10 - - - -
20/01:30pm 19.8 SW 12 17 1018.1 - 0.0 - - 10 - - - -
20/01:00pm 19.7 SW 10 15 1018.2 - 0.0 - - 10 - - - -
20/12:30pm 19.5 SW 12 16 1018.4 - 0.0 - - 10 - - - -
20/12:00pm 19.9 WSW 10 15 1018.5 F 0.0 Fine Mostly cloudy 25 - - - -
20/11:30am 19.2 SW 8 15 1018.7 - 0.0 - Mostly clear 10 - - - -
20/11:00am 18.8 SSW 8 12 1018.9 - 0.0 - Mostly clear 10 - - - -
20/10:30am 18.5 WSW 9 12 1019.1 - 0.0 - Mostly clear 10 - - - -
20/10:00am 18.2 SSE 6 8 1018.9 - 0.0 - Mostly clear 10 - - - -
20/09:30am 17.2 SE 6 10 1018.8 - 0.0 - Mostly clear 10 - - - -
20/09:00am 17.0 ESE 7 9 1018.7 R 0.8 Haze Mostly cloudy 20 - - - -
20/08:30am 15.9 S 4 5 1018.5 - 0.8 - Mostly clear 10 - - - -
20/08:00am 15.0 SW 5 6 1018.3 - 0.8 - Mostly clear 10 - - - -
20/07:30am 14.6 SSW 4 5 1017.9 - 0.8 - Mostly clear 10 - - - -
20/07:00am 14.3 SSE 5 6 1017.5 - 0.8 - Cloudy 10 - - - -
20/06:30am 14.4 S 4 4 1017.4 - 0.8 - Partly cloudy 10 - - - -
20/06:00am 13.9 SSE 5 6 1017.1 R 0.8 Fine Mostly cloudy 30 - - - -
20/05:30am 13.7 SSE 4 5 1016.9 - 0.8 - Cloudy 10 - - - -
20/05:00am 13.0 S 4 5 1016.5 - 0.8 - Partly cloudy 10 - - - -
20/04:30am 12.9 ESE 4 4 1016.5 - 0.8 - Partly cloudy 10 - - - -
20/04:00am 12.8 SE 6 7 1016.4 - 0.8 - - 10 - - - -

Other Formats:

Comma delimited format used in spreadsheet applications
http://www.bom.gov.au/fwo/IDS60701/IDS60701.94672.axf

JavaScript Object Notation format (JSON) in row-major order
http://www.bom.gov.au/fwo/IDS60701/IDS60701.94672.json